Time;durP1;ratioP1;P1;durP2;ratioP2;P2;SDS_P1;SDS_P2;PMS_P1;PMS_P2;Temp;Humidity;BMP_temperature;BMP_pressure;BME280_temperature;BME280_humidity;BME280_pressure;Samples;Min_cycle;Max_cycle;Signal;HPM_P1;HPM_P2
2022/12/07 06:44:56;;;;;;;37.38;22.67;;;;;;;-0.38;100.00;97486.02;1855837;77;21296;-66
2022/12/07 06:47:25;;;;;;;37.48;21.17;;;;;;;-0.31;100.00;97484.86;1824058;77;21470;-66
2022/12/07 06:49:52;;;;;;;34.63;18.37;;;;;;;-0.24;100.00;97482.89;1855761;77;20904;-64
2022/12/07 06:52:19;;;;;;;27.42;15.15;;;;;;;-0.15;100.00;97492.02;1855852;77;20923;-66
2022/12/07 06:54:45;;;;;;;25.80;15.13;;;;;;;-0.04;100.00;97487.22;1845078;77;20969;-64
2022/12/07 06:57:12;;;;;;;26.23;17.15;;;;;;;0.05;100.00;97488.95;1841268;77;21203;-66
2022/12/07 06:59:39;;;;;;;26.33;17.23;;;;;;;0.13;100.00;97483.31;1828698;78;20901;-60
2022/12/07 07:02:05;;;;;;;27.55;17.40;;;;;;;0.23;100.00;97478.75;1828735;78;20913;-64
2022/12/07 07:04:35;;;;;;;22.40;15.38;;;;;;;0.34;100.00;97476.56;1828664;78;20984;-63
2022/12/07 07:07:01;;;;;;;76.35;42.53;;;;;;;0.37;100.00;97478.22;1828654;78;21376;-63
2022/12/07 07:09:28;;;;;;;26.73;18.75;;;;;;;0.40;100.00;97467.73;1828587;78;22100;-64
2022/12/07 07:11:55;;;;;;;30.82;24.55;;;;;;;0.43;100.00;97469.35;1828622;78;20976;-64
2022/12/07 07:14:21;;;;;;;24.12;18.48;;;;;;;0.45;100.00;97474.38;1828571;78;20937;-64
2022/12/07 07:16:48;;;;;;;21.82;17.07;;;;;;;0.48;100.00;97473.91;1835478;77;20963;-62
2022/12/07 07:19:14;;;;;;;24.27;16.70;;;;;;;0.51;100.00;97475.56;1850618;77;21062;-62
2022/12/07 07:21:41;;;;;;;27.48;18.90;;;;;;;0.52;100.00;97477.66;1815239;79;21126;-61
2022/12/07 07:24:08;;;;;;;29.82;21.10;;;;;;;0.51;100.00;97466.84;1855547;77;20959;-61
2022/12/07 07:26:34;;;;;;;40.38;27.77;;;;;;;0.52;100.00;97462.65;1855238;77;20951;-62
2022/12/07 07:29:01;;;;;;;26.90;18.57;;;;;;;0.51;100.00;97467.66;1854965;77;21029;-65
2022/12/07 07:31:28;;;;;;;35.10;23.32;;;;;;;0.56;100.00;97467.74;1855572;77;20958;-67
2022/12/07 07:33:58;;;;;;;67.45;35.88;;;;;;;0.64;100.00;97477.06;1837907;77;21215;-62
2022/12/07 07:36:26;;;;;;;40.17;21.45;;;;;;;0.71;100.00;97464.53;1839007;77;21275;-64
2022/12/07 07:38:52;;;;;;;27.32;20.12;;;;;;;0.79;100.00;97466.77;1841355;77;20914;-62
2022/12/07 07:41:19;;;;;;;27.45;21.23;;;;;;;0.84;100.00;97466.86;1827801;77;20927;-63
2022/12/07 07:43:46;;;;;;;21.62;17.10;;;;;;;0.86;100.00;97462.14;1822262;78;20899;-64
2022/12/07 07:46:12;;;;;;;24.02;18.17;;;;;;;0.90;100.00;97460.60;1822167;78;21253;-59
2022/12/07 07:48:39;;;;;;;16.80;13.08;;;;;;;0.93;100.00;97460.13;1846916;77;20872;-65
2022/12/07 07:51:08;;;;;;;17.57;14.43;;;;;;;0.95;100.00;97468.59;1815424;79;21352;-67
2022/12/07 07:53:35;;;;;;;22.10;13.50;;;;;;;0.98;100.00;97470.76;1847789;77;21005;-66
2022/12/07 07:56:01;;;;;;;18.35;13.88;;;;;;;1.01;100.00;97474.75;1849373;77;21352;-60
2022/12/07 07:58:28;;;;;;;15.78;12.55;;;;;;;1.05;100.00;97472.70;1855056;77;21169;-60
2022/12/07 08:00:55;;;;;;;18.70;13.93;;;;;;;1.10;100.00;97474.10;1855098;77;20905;-61
2022/12/07 08:03:22;;;;;;;21.15;16.35;;;;;;;1.10;100.00;97467.51;1855277;77;21416;-64
2022/12/07 08:05:49;;;;;;;18.87;13.90;;;;;;;1.07;100.00;97473.26;1821767;77;20958;-60
2022/12/07 08:08:17;;;;;;;23.25;17.25;;;;;;;1.01;100.00;97475.55;1815319;79;20942;-60
2022/12/07 08:10:43;;;;;;;25.32;16.95;;;;;;;1.00;100.00;97476.59;1823778;77;21850;-65
2022/12/07 08:13:10;;;;;;;22.32;15.03;;;;;;;1.01;100.00;97482.16;1838554;77;20888;-62
2022/12/07 08:15:38;;;;;;;24.12;16.95;;;;;;;1.04;100.00;97490.88;1848630;77;21003;-62
2022/12/07 08:18:05;;;;;;;20.08;13.13;;;;;;;1.05;100.00;97487.21;1850523;77;20967;-65
2022/12/07 08:20:32;;;;;;;23.35;14.95;;;;;;;1.06;100.00;97487.47;1854438;77;20825;-69
2022/12/07 08:22:59;;;;;;;16.27;11.48;;;;;;;1.06;100.00;97482.75;1842331;77;21164;-63
2022/12/07 08:25:26;;;;;;;13.43;10.48;;;;;;;1.05;100.00;97477.98;1847787;77;20927;-58
2022/12/07 08:27:53;;;;;;;19.50;13.65;;;;;;;1.02;100.00;97483.73;1849936;77;20920;-61
2022/12/07 08:30:20;;;;;;;20.08;14.73;;;;;;;0.99;100.00;97486.06;1853280;77;21116;-60
2022/12/07 08:32:47;;;;;;;22.95;13.48;;;;;;;0.97;100.00;97481.02;1848479;77;20970;-64
2022/12/07 08:35:15;;;;;;;19.70;14.00;;;;;;;0.97;100.00;97482.33;1854855;77;21093;-63
2022/12/07 08:37:42;;;;;;;17.67;11.78;;;;;;;0.98;100.00;97481.30;1828292;77;20829;-62
2022/12/07 08:40:10;;;;;;;16.50;12.37;;;;;;;1.02;100.00;97479.77;1823683;77;20954;-60
2022/12/07 08:42:39;;;;;;;18.35;12.23;;;;;;;1.02;100.00;97477.66;1815709;79;21528;-64
2022/12/07 08:45:10;;;;;;;17.35;12.45;;;;;;;1.02;100.00;97482.41;1814736;79;20981;-62
2022/12/07 08:47:43;;;;;;;21.42;14.90;;;;;;;1.03;100.00;97476.11;1815335;79;21873;-62
2022/12/07 08:50:10;;;;;;;20.88;13.95;;;;;;;1.03;100.00;97477.94;1773948;80;20927;-63
2022/12/07 08:52:37;;;;;;;15.70;11.00;;;;;;;1.03;100.00;97477.43;1817584;77;21128;-62
2022/12/07 08:55:05;;;;;;;14.68;10.25;;;;;;;1.03;100.00;97473.47;1789557;79;21036;-61
2022/12/07 08:57:33;;;;;;;16.67;11.40;;;;;;;1.02;100.00;97480.29;1789714;80;21108;-63
2022/12/07 09:00:00;;;;;;;15.43;11.63;;;;;;;1.01;100.00;97475.55;1753299;81;21081;-63
2022/12/07 09:02:29;;;;;;;16.17;12.95;;;;;;;0.98;100.00;97477.86;1773788;81;20962;-62
2022/12/07 09:05:02;;;;;;;18.52;13.35;;;;;;;0.98;100.00;97478.67;1774091;81;21393;-62
2022/12/07 09:07:31;;;;;;;21.62;16.17;;;;;;;0.98;100.00;97476.03;1788637;80;20874;-61
2022/12/07 09:09:58;;;;;;;17.27;12.23;;;;;;;1.01;100.00;97466.84;1813184;79;20868;-60
2022/12/07 09:12:25;;;;;;;20.55;16.50;;;;;;;1.04;100.00;97468.97;1813997;79;21223;-61
2022/12/07 09:14:52;;;;;;;17.60;13.18;;;;;;;1.04;100.00;97473.73;1813795;79;20895;-58
2022/12/07 09:17:18;;;;;;;16.27;12.47;;;;;;;1.05;100.00;97477.98;1813700;79;20911;-64
2022/12/07 09:19:45;;;;;;;16.97;12.68;;;;;;;1.07;100.00;97469.30;1813642;79;20942;-60
2022/12/07 09:22:12;;;;;;;19.02;12.35;;;;;;;1.05;100.00;97471.39;1813560;79;20962;-62
2022/12/07 09:24:39;;;;;;;15.93;11.30;;;;;;;1.05;100.00;97471.39;1813806;79;21199;-63
2022/12/07 09:27:06;;;;;;;15.65;11.50;;;;;;;1.06;100.00;97475.61;1827846;77;20938;-62
2022/12/07 09:29:33;;;;;;;19.15;13.53;;;;;;;1.06;100.00;97469.56;1822671;77;21398;-62
2022/12/07 09:31:59;;;;;;;16.95;13.40;;;;;;;1.08;100.00;97468.79;1844029;77;20886;-58
2022/12/07 09:34:26;;;;;;;17.00;12.58;;;;;;;1.10;100.00;97460.91;1844102;77;20995;-65
2022/12/07 09:36:53;;;;;;;15.78;11.93;;;;;;;1.13;100.00;97467.00;1832954;77;21113;-60
2022/12/07 09:39:22;;;;;;;17.02;11.73;;;;;;;1.10;100.00;97466.19;1812555;79;20874;-63
2022/12/07 09:41:50;;;;;;;18.60;13.10;;;;;;;1.09;100.00;97473.81;1817305;79;20874;-62
2022/12/07 09:44:22;;;;;;;21.95;16.02;;;;;;;1.08;100.00;97467.47;1828997;77;20924;-60
2022/12/07 09:46:52;;;;;;;25.02;17.42;;;;;;;1.10;100.00;97464.88;1845838;77;21022;-62
2022/12/07 09:49:25;;;;;;;28.38;19.60;;;;;;;1.10;100.00;97456.16;1821404;77;21109;-63
2022/12/07 09:52:28;;;;;;;20.75;15.40;;;;;;;1.12;100.00;97464.10;1844775;77;21498;-63
2022/12/07 09:54:55;;;;;;;25.82;18.37;;;;;;;1.15;100.00;97454.39;1782376;79;21523;-62
2022/12/07 09:57:29;;;;;;;23.98;17.23;;;;;;;1.17;100.00;97455.45;1833819;77;20931;-59
2022/12/07 10:00:07;;;;;;;35.70;22.62;;;;;;;1.19;100.00;97456.02;1818781;79;20888;-62
2022/12/07 10:02:41;;;;;;;27.13;18.65;;;;;;;1.21;100.00;97467.92;1818628;79;21208;-63
2022/12/07 10:05:15;;;;;;;24.57;16.77;;;;;;;1.23;100.00;97465.03;1818874;77;20947;-64
2022/12/07 10:07:42;;;;;;;23.90;15.75;;;;;;;1.23;100.00;97457.11;1818090;78;20899;-62
2022/12/07 10:10:19;;;;;;;23.75;17.73;;;;;;;1.20;100.00;97455.76;1822095;77;20884;-61
2022/12/07 10:13:04;;;;;;;20.55;16.10;;;;;;;1.17;100.00;97454.95;1818981;78;21003;-59
2022/12/07 10:15:45;;;;;;;21.62;15.45;;;;;;;1.19;100.00;97458.65;1818748;79;21066;-61
2022/12/07 10:18:32;;;;;;;21.57;14.50;;;;;;;1.19;100.00;97458.14;1818757;79;20911;-62
2022/12/07 10:21:13;;;;;;;15.98;12.53;;;;;;;1.20;100.00;97455.76;1818794;79;20833;-62
2022/12/07 10:24:07;;;;;;;19.87;13.93;;;;;;;1.22;100.00;97445.78;1818401;79;21040;-59
2022/12/07 10:26:40;;;;;;;23.32;16.05;;;;;;;1.25;100.00;97453.19;1818876;79;20951;-61
2022/12/07 10:29:24;;;;;;;15.75;12.13;;;;;;;1.27;100.00;97449.78;1819035;79;21173;-60
2022/12/07 10:32:07;;;;;;;17.30;11.63;;;;;;;1.32;100.00;97442.45;1842853;77;20848;-59
2022/12/07 10:34:41;;;;;;;15.63;11.90;;;;;;;1.41;100.00;97438.89;1833159;78;20873;-63
2022/12/07 10:37:25;;;;;;;16.10;11.40;;;;;;;1.47;100.00;97443.17;1808809;78;21490;-62
2022/12/07 10:39:56;;;;;;;15.83;10.58;;;;;;;1.53;100.00;97440.89;1833502;77;20881;-61
2022/12/07 10:42:25;;;;;;;16.02;11.63;;;;;;;1.57;100.00;97440.16;1759992;81;21142;-65
2022/12/07 10:45:15;;;;;;;16.57;12.07;;;;;;;1.62;100.00;97432.30;1772104;80;20845;-61
2022/12/07 10:48:00;;;;;;;17.70;12.58;;;;;;;1.64;100.00;97439.96;1769336;80;20856;-63
2022/12/07 10:51:06;;;;;;;15.00;11.40;;;;;;;1.64;100.00;97447.87;1767883;80;21415;-65
2022/12/07 10:53:51;;;;;;;20.10;12.85;;;;;;;1.62;100.00;97436.26;1803615;79;20859;-61
2022/12/07 10:56:33;;;;;;;23.77;12.82;;;;;;;1.67;100.00;97432.87;1765342;81;21739;-65
2022/12/07 10:59:14;;;;;;;21.00;15.32;;;;;;;1.74;100.00;97426.88;1842986;77;20868;-61
2022/12/07 11:02:19;;;;;;;19.17;13.68;;;;;;;1.82;100.00;97429.06;1842182;77;21051;-65
2022/12/07 11:05:00;;;;;;;21.60;12.80;;;;;;;1.90;100.00;97429.44;1842804;77;20900;-63
2022/12/07 11:08:01;;;;;;;19.23;13.93;;;;;;;1.92;100.00;97439.75;1843512;77;21419;-61
2022/12/07 11:10:45;;;;;;;19.82;13.58;;;;;;;1.90;100.00;97441.84;1843316;77;21244;-61
2022/12/07 11:13:36;;;;;;;19.67;12.63;;;;;;;1.90;100.00;97436.56;1843361;77;20907;-65
2022/12/07 11:16:14;;;;;;;17.70;13.40;;;;;;;1.88;99.94;97433.37;1829968;77;20932;-62
2022/12/07 11:19:27;;;;;;;17.95;13.03;;;;;;;1.87;99.95;97427.80;1825180;77;20968;-60
2022/12/07 11:22:06;;;;;;;17.70;12.50;;;;;;;1.85;99.84;97421.46;1804382;77;20865;-61
2022/12/07 11:24:57;;;;;;;17.65;12.47;;;;;;;1.80;99.83;97422.72;1843210;77;21228;-61
2022/12/07 11:28:08;;;;;;;15.75;12.20;;;;;;;1.81;99.94;97436.73;1840916;77;20947;-61
2022/12/07 11:31:04;;;;;;;17.17;11.73;;;;;;;1.78;99.45;97429.30;1838493;77;20923;-61
2022/12/07 11:33:47;;;;;;;17.12;12.85;;;;;;;1.71;99.68;97424.73;1833116;77;20959;-60
2022/12/07 11:36:38;;;;;;;16.55;12.10;;;;;;;1.68;99.52;97420.73;1803261;77;20877;-65
2022/12/07 11:39:30;;;;;;;19.57;14.03;;;;;;;1.64;99.61;97420.16;1803590;78;21194;-62
2022/12/07 11:42:05;;;;;;;18.98;13.78;;;;;;;1.64;99.86;97417.52;1821682;78;21436;-59
2022/12/07 11:44:53;;;;;;;14.15;11.25;;;;;;;1.67;100.00;97415.17;1820877;78;20983;-59
2022/12/07 11:47:31;;;;;;;19.12;13.05;;;;;;;1.71;99.68;97401.77;1833666;77;21399;-57
2022/12/07 11:50:10;;;;;;;20.68;14.47;;;;;;;1.80;99.32;97399.48;1804746;79;20960;-60
2022/12/07 11:52:51;;;;;;;17.90;13.88;;;;;;;1.89;99.49;97398.78;1830721;77;21264;-60
2022/12/07 11:55:51;;;;;;;18.15;13.53;;;;;;;1.95;99.29;97397.00;1844093;77;20872;-60
2022/12/07 11:58:44;;;;;;;22.62;14.28;;;;;;;1.99;99.15;97392.80;1843577;77;20944;-57
2022/12/07 12:01:28;;;;;;;20.05;13.18;;;;;;;2.07;98.89;97398.42;1844151;77;20901;-58
2022/12/07 12:04:13;;;;;;;20.17;14.00;;;;;;;2.08;98.17;97395.27;1842263;77;20962;-59
2022/12/07 12:06:42;;;;;;;21.82;13.20;;;;;;;2.07;98.11;97388.41;1832628;77;21122;-56
2022/12/07 12:09:20;;;;;;;18.60;13.48;;;;;;;2.11;97.48;97394.77;1838050;77;21438;-57
2022/12/07 12:12:28;;;;;;;17.35;12.65;;;;;;;2.11;97.37;97397.93;1842590;77;20958;-61
2022/12/07 12:15:15;;;;;;;16.32;12.20;;;;;;;2.08;97.44;97392.63;1842417;77;20998;-59
2022/12/07 12:18:25;;;;;;;15.43;12.00;;;;;;;2.07;97.41;97393.14;1837887;77;21335;-58
2022/12/07 12:21:12;;;;;;;19.25;14.45;;;;;;;2.04;96.81;97384.94;1816066;77;21201;-58
2022/12/07 12:23:50;;;;;;;15.60;12.60;;;;;;;2.06;97.26;97388.12;1832952;77;24816;-57
2022/12/07 12:26:21;;;;;;;17.90;13.50;;;;;;;2.07;97.30;97384.44;1831996;77;21431;-58
2022/12/07 12:29:20;;;;;;;20.88;16.42;;;;;;;2.04;97.19;97379.65;1844123;77;20955;-62
2022/12/07 12:31:48;;;;;;;18.85;13.75;;;;;;;1.99;97.19;97376.95;1817597;77;20927;-59
2022/12/07 12:34:50;;;;;;;20.50;14.15;;;;;;;1.91;97.46;97377.39;1810505;79;21233;-57
2022/12/07 12:37:39;;;;;;;17.20;14.00;;;;;;;1.85;97.66;97378.41;1809268;79;20919;-61
2022/12/07 12:40:27;;;;;;;19.50;15.08;;;;;;;1.83;97.97;97385.78;1810636;78;20908;-58
2022/12/07 12:45:31;;;;;;;43.70;29.30;;;;;;;1.78;98.10;97377.80;1810213;79;20967;-58
2022/12/07 12:48:28;;;;;;;34.83;22.75;;;;;;;1.76;98.26;97371.98;1827445;77;21200;-62
2022/12/07 12:51:36;;;;;;;37.42;26.02;;;;;;;1.77;98.29;97379.64;1792937;79;21323;-70
2022/12/07 12:54:13;;;;;;;26.07;19.25;;;;;;;1.79;98.36;97376.23;1800678;77;20986;-59
2022/12/07 12:57:03;;;;;;;76.82;46.37;;;;;;;1.85;98.34;97375.77;1835366;77;21525;-58
2022/12/07 12:59:31;;;;;;;42.60;29.95;;;;;;;1.90;98.21;97383.73;1810064;79;20968;-64
2022/12/07 13:02:18;;;;;;;52.35;35.80;;;;;;;1.92;98.07;97392.20;1817399;77;21177;-67
2022/12/07 13:05:09;;;;;;;43.50;29.75;;;;;;;1.94;98.05;97385.63;1843217;77;20916;-61
2022/12/07 13:08:07;;;;;;;44.48;31.12;;;;;;;1.96;97.95;97395.94;1843632;77;20908;-61
2022/12/07 13:10:41;;;;;;;64.53;43.80;;;;;;;1.96;97.91;97401.22;1829500;77;20955;-61
2022/12/07 13:13:18;;;;;;;48.00;36.77;;;;;;;1.91;97.96;97401.16;1815783;77;20991;-68
2022/12/07 13:15:54;;;;;;;102.87;73.07;;;;;;;1.90;98.07;97408.83;1835210;77;21495;-66
